x

9440910 - Toke Point, Wa (tokw1) Weather Station

4:54 - Sat 21st Jan 2017 All times are PST. -8 hours from GMT.

  • Wind
    6mph, 8mph gusts
  • Sea Temp 46°f
  • Aire Temp 46°f
  • Sea Pressure 997.9mb
  • 9440910 - Toke Point, Wa
  • 9440910 - Toke Point, Wa

More Historic Weather Station data

Upgrade to MSW Pro to gain access to the past 30 days of data for over 8000 Wavebouys and Weather Stations around the globe.

Join Pro

Comparision Forecast

View Surf forecast
   
sáb 01/21 4:54 6 8 mph 997.9mb 46f 46f
4:48 6 8 mph 997.8mb 46f 46f
4:42 7 9 mph 997.7mb 46f 46f
4:36 8 9 mph 997.6mb 46f 46f
4:30 6 8 mph 997.5mb 46f 46f
4:24 8 11 mph 997.4mb 46f 46f
4:18 10 11 mph 997.2mb 46f 46f
4:12 10 11 mph 997.2mb 46f 46f
4:06 9 11 mph 997.2mb 46f 46f
4:00 8 10 mph 997.1mb 46f 46f
3:54 7 9 mph 997mb 46f 46f
3:48 8 10 mph 997mb 46f -
3:42 7 9 mph 996.9mb 46f -
3:36 7 8 mph 996.9mb 46f -
3:30 6 7 mph 996.8mb 46f 46f
3:24 5
mph
996.7mb 46f 46f
3:18 5 7 mph 996.6mb 46f 46f
3:12 6 8 mph 996.4mb 46f 46f
3:06 7 8 mph 996.3mb 45f 46f
3:00 7 9 mph 996.1mb 45f 46f
2:54 8 11 mph 996.1mb 45f 46f
2:48 10 14 mph 996mb 45f -
2:42 14 15 mph 995.9mb 45f -
2:36 10 14 mph 995.8mb 45f -
2:30 7 9 mph 995.7mb 45f 46f
2:24 7 9 mph 995.6mb 45f 46f
2:18 9 10 mph 995.5mb 45f -
2:12 10 14 mph 995.4mb 45f 47f
2:06 11 17 mph 995.3mb 45f 47f
2:00 14 16 mph 995.1mb 45f 47f
1:54 9 11 mph 995mb 45f 47f
1:48 10 13 mph 994.9mb 45f -
1:42 11 13 mph 994.8mb 45f 48f
1:36 11 13 mph 994.7mb 45f 48f
1:30 10 13 mph 994.6mb 45f 48f
1:24 8 13 mph 994.6mb 45f 48f
1:18 10 13 mph 994.5mb 45f 48f
1:12 11 14 mph 994.5mb 45f 48f
1:06 11 14 mph 994.4mb 45f 48f
1:00 11 15 mph 994.3mb 45f 48f
12:54 11 14 mph 994.2mb 45f 48f
12:48 9 11 mph 994.2mb 45f -
12:42 10 13 mph 994.2mb 45f 49f
12:36 10 13 mph 994.1mb 45f 48f
12:30 11 14 mph 994.1mb 45f 49f
12:24 10 13 mph 994mb 45f 49f
12:18 8 13 mph 994mb 45f 48f
12:12 10 14 mph 994mb 45f 49f
12:06 11 15 mph 993.9mb 45f 49f
12:00 11 16 mph 993.9mb 45f 49f
11:54 14 16 mph 993.9mb 45f 49f
11:48 14 16 mph 993.9mb 45f 49f
11:42 15 17 mph 993.8mb 45f 49f
11:36 7 10 mph 993.8mb 45f 48f
11:30 9 10 mph 993.7mb 45f 48f
11:24 10 16 mph 993.7mb 45f 48f
11:18 11 16 mph 993.7mb 45f -
11:12 9 13 mph 993.6mb 45f 49f
11:06 10 14 mph 993.6mb 44f 49f
11:00 10 15 mph 993.6mb 44f 48f
10:54 14 15 mph 993.6mb 45f 48f
10:48 11 14 mph - - -
10:42 11 14 mph - 44f 47f
10:36 11 16 mph - 44f 47f
10:30 13 15 mph 993.3mb 44f 47f
10:24 13 15 mph 993.3mb 45f 47f
10:18 14 17 mph 993.2mb 44f 47f
10:12 15 16 mph 993.1mb 45f 46f
10:06 14 15 mph 993mb 44f 46f
10:00 13 14 mph 992.9mb 45f 46f
9:54 13 14 mph 992.9mb 45f 46f
9:48 14
mph
992.9mb 45f 45f
9:42 11 13 mph 992.9mb 45f 45f
9:36 11 14 mph 992.8mb 45f 45f
9:30 11 13 mph 992.8mb 45f 45f
9:24 10 11 mph 992.7mb 46f 44f
9:18 8 9 mph 992.6mb 46f 44f
9:12 8 10 mph 992.5mb 46f 44f
9:06 8 10 mph 992.5mb 46f 44f
9:00 9 11 mph 992.4mb 46f 44f
8:54 9 10 mph 992.3mb 46f 44f
8:48 9 10 mph 992.2mb - -
8:42 9 10 mph 992.1mb 47f 44f
8:36 9 10 mph 992.1mb 47f 43f
8:30 10
mph
992mb 47f 43f
8:24 8 9 mph 991.9mb 47f 44f
8:18 8 9 mph 991.8mb 47f 44f
8:12 8 9 mph 991.7mb 47f 44f
8:06 6 7 mph 991.6mb 47f 44f
8:00 6 8 mph 991.6mb 47f 45f
7:54 7 8 mph 991.4mb 47f 45f
7:48 7 8 mph 991.3mb 47f 45f
7:42 7 8 mph 991.2mb 47f 44f
7:36 7 8 mph 991.2mb 47f 44f
7:30 7 8 mph 991.1mb 47f 44f
7:24 7 8 mph 991mb 47f 44f
7:18 8 9 mph 991mb 47f 44f
7:12 8 9 mph 990.9mb 47f 43f
7:06 8 10 mph 990.8mb 47f 43f
7:00 8 9 mph 990.7mb 47f 43f
6:54 8 10 mph 990.7mb 47f 44f
6:48 9 13 mph - - -
6:42 11 13 mph 990.6mb 47f 44f
6:36 10 11 mph 990.5mb 47f 44f
6:30 10 11 mph 990.4mb 47f 44f
6:24 11
mph
990.3mb 47f 44f
6:18 10 11 mph 990.3mb 47f -
6:12 10
mph
990.3mb 47f 44f
6:06 8 10 mph 990.4mb 47f 43f
6:00 10 11 mph 990.3mb 47f 43f
5:54 10 11 mph 990.3mb 47f 43f
5:48 9 10 mph 990.2mb 47f 43f
5:42 8 11 mph 990.1mb 47f 43f
5:36 10 13 mph 990mb 47f 43f
5:30 10 11 mph 989.9mb 47f 43f
5:24 10 11 mph 989.9mb 47f 43f
5:18 9 11 mph 989.9mb - -
5:12 10 11 mph 989.8mb 47f 43f
5:06 10 11 mph 989.7mb 47f 43f
5:00 10 11 mph 989.7mb 47f 44f
4:54 9 10 mph 989.7mb 47f 44f
4:48 9 10 mph 989.6mb 47f 44f
4:42 10
mph
989.6mb 47f 43f
4:36 9 10 mph 989.5mb 47f 43f
4:30 9 10 mph 989.5mb 47f 43f
4:24 9 11 mph 989.5mb 47f 43f
4:18 10 11 mph 989.5mb 47f -
4:12 10 11 mph 989.5mb 47f 43f
4:06 9 11 mph 989.5mb 47f 43f
4:00 10 11 mph 989.5mb 46f 43f
3:54 9 10 mph 989.5mb 46f 43f
3:48 9 11 mph 989.5mb 46f -
3:42 9 11 mph 989.4mb 46f 43f
3:36 10
mph
989.4mb 46f 43f
3:30 8 10 mph 989.3mb 46f 43f
3:24 9 10 mph 989.3mb 46f 43f
3:18 8 10 mph 989.3mb 46f 43f
3:12 9 10 mph 989.4mb 46f 43f
3:06 8 9 mph 989.4mb 46f 43f
3:00 7 8 mph 989.4mb 46f 43f
2:54 8
mph
989.3mb 46f 43f
2:48 8 9 mph 989.3mb 46f 43f
2:42 8 10 mph 989.3mb 46f 43f
2:36 8 9 mph 989.2mb 46f 43f
2:30 7 9 mph 989.2mb 46f 43f
2:24 6 8 mph 989.2mb 46f 43f
2:18 8 9 mph 989.1mb 46f -
2:12 6 7 mph 989.1mb 46f 43f
2:06 6 7 mph 989mb 46f 43f
2:00 6
mph
989mb 46f 43f
1:54 7 8 mph 988.9mb 46f 44f
1:48 7 8 mph 988.8mb 46f 43f
1:42 6
mph
988.7mb 46f 43f
1:36 6 7 mph 988.7mb 46f 43f
1:30 6 8 mph 988.6mb 45f 44f
1:24 7 8 mph 988.6mb 45f 43f
1:18 7 8 mph 988.5mb 45f -
1:12 7 10 mph 988.5mb 45f 44f
1:06 10 11 mph 988.4mb 45f 44f
1:00 10 11 mph 988.3mb 45f 44f
12:54 9 11 mph 988.3mb 45f 44f
12:48 10 11 mph 988.2mb 45f 44f
12:42 8 11 mph 988.2mb 45f 44f
12:36 9 13 mph 988.1mb 45f 44f
12:30 9 10 mph 988mb 45f 44f
12:24 9 11 mph 988mb 45f 44f
12:18 10 13 mph 988mb 45f 43f
12:12 11 13 mph 987.9mb 45f 43f
12:06 9 10 mph 988mb 45f 43f
12:00 9 10 mph 988mb 45f 43f
vie 01/20 11:54 9 10 mph 988mb 45f 43f
11:48 9 10 mph 987.9mb 45f -
11:42 10 13 mph 987.9mb 45f 43f
11:36 11 13 mph 987.8mb 45f 43f
11:30 10
mph
987.7mb 45f 43f
11:24 8 9 mph 987.8mb 45f 43f
11:18 10 11 mph 987.7mb 45f 44f
11:12 9 10 mph 987.7mb 45f 43f
11:06 9 11 mph 987.6mb 45f 43f
11:00 10 11 mph 987.5mb 45f 44f
10:54 9 13 mph 987.5mb 45f 44f
10:48 10 13 mph 987.4mb 45f 44f
10:42 11 13 mph 987.4mb 45f 44f
10:36 11 14 mph 987.4mb 45f 44f
10:30 11 13 mph 987.4mb 45f 44f
10:24 13 14 mph 987.4mb 45f 44f
10:18 10 13 mph 987.3mb 45f -
10:12 11 13 mph 987.3mb 45f 44f
10:06 10 11 mph 987.2mb 45f 44f
10:00 10 13 mph 987.1mb 45f 44f
9:54 11 14 mph 987.2mb 45f 44f
9:48 10 11 mph - - -
9:42 11 13 mph 987.2mb 45f -
9:36 10 13 mph 987.1mb 45f -
9:30 11 13 mph 987.1mb 45f 44f
9:24 11 14 mph 987mb 45f 44f
9:18 13 14 mph 987mb 45f -
9:12 11 13 mph 986.9mb 45f 44f
9:06 11 13 mph 986.9mb 45f 44f
9:00 11 14 mph 986.8mb 46f 44f
8:54 13 14 mph 986.8mb 45f 44f
8:48 10 13 mph 986.8mb 46f -
8:42 11
mph
986.8mb 46f 44f
8:36 9 11 mph 986.6mb 46f 45f
8:30 10 11 mph 986.6mb 46f 45f
8:24 9 11 mph 986.5mb 46f 45f
8:18 10 11 mph 986.5mb 46f 45f
8:12 10 11 mph 986.5mb 46f 45f
8:06 11 13 mph 986.4mb 46f 45f
8:00 11 14 mph 986.4mb 46f 45f
7:54 13 14 mph 986.3mb 46f 45f
7:48 11 14 mph 986.3mb 47f 45f
7:42 13 15 mph 986.2mb 47f 45f
7:36 11 15 mph 986.1mb 47f 45f
7:30 13 15 mph 986mb 47f 45f
7:24 13 14 mph 986mb 47f 45f
7:18 13 14 mph 986mb 47f 45f
7:12 8 9 mph 985.9mb 47f 44f
7:06 7 10 mph 986mb 47f 45f
7:00 8 10 mph 986.1mb 47f 44f
6:54 10 14 mph 986mb 47f 45f
6:48 11 13 mph - - -
6:42 10 15 mph 985.8mb 47f 45f
6:36 11 14 mph 985.8mb 47f 45f
6:30 11 16 mph 985.7mb 47f 45f
6:24 14 17 mph 985.7mb 47f 45f
6:18 15 16 mph 985.6mb 47f -
6:12 14 17 mph 985.6mb 47f 45f
6:06 13 16 mph 985.6mb 47f 45f
6:00 14 18 mph 985.5mb 47f 45f
5:54 16 18 mph 985.4mb 47f 45f
5:48 15 18 mph 985.3mb 47f 46f
5:42 17 20 mph 985.2mb 47f 46f
5:36 17 18 mph 985.1mb 47f 46f
5:30 16 17 mph 985.1mb 47f 46f
5:24 14 16 mph 985mb 47f 46f
5:18 14 17 mph 985mb 47f 46f
5:12 16 17 mph 985mb 47f 46f
5:06 14 16 mph 985mb 47f 46f
5:00 15 17 mph 984.9mb 47f 46f
4:54 14 16 mph 984.9mb 46f 46f
4:48 14 16 mph - 46f -
4:42 13 15 mph - 46f 46f
4:36 14 15 mph - 46f 46f
4:30 14 15 mph 984.8mb 46f 46f
4:24 14 15 mph 984.8mb 46f 46f
4:18 13 15 mph 984.8mb 46f 46f
4:12 13 15 mph 984.8mb 46f 46f
4:06 13 16 mph 984.8mb 46f 46f
4:00 14 15 mph 984.8mb 46f 46f
3:54 13 15 mph 984.7mb 46f 46f
3:48 13 15 mph - - -
3:42 11 14 mph 984.6mb 46f 46f
3:36 13 14 mph 984.6mb 46f 47f
3:30 11 14 mph 984.5mb 46f 47f
3:24 11 13 mph 984.5mb 46f 47f
3:18 11 14 mph 984.4mb 46f 47f
3:12 13 15 mph 984.4mb 46f 47f
3:06 13 14 mph 984.4mb 46f 47f
3:00 11 14 mph 984.3mb 46f 47f
2:54 11 14 mph 984.2mb 46f 47f
2:48 11 15 mph 984.2mb 46f 47f
2:42 13 14 mph 984.2mb 46f 47f
2:36 11 14 mph 984.1mb 46f 47f
2:30 11 15 mph 984mb 46f 47f
2:24 13 15 mph 984mb 46f 47f
2:18 14 16 mph 984mb 46f 47f
2:12 14 15 mph 984mb 46f 47f
2:06 14 17 mph 984mb 46f 47f
2:00 13 15 mph 983.9mb 46f 47f
1:54 13 15 mph 983.9mb 46f 47f
1:48 11 13 mph 983.8mb 46f 47f
1:42 11 14 mph 983.8mb 46f 47f
1:36 10 13 mph 983.7mb 45f 47f
1:30 10 14 mph 983.8mb 45f 47f
1:24 11 15 mph 983.8mb 45f 47f
1:18 13 14 mph 983.7mb 45f -
1:12 10 13 mph 983.7mb 45f 47f
1:06 11 13 mph 983.8mb 45f 46f
1:00 10 11 mph 983.8mb 45f 46f
12:54 10 11 mph 983.9mb 45f 46f
12:48 10 11 mph 983.9mb 45f 46f
12:42 11 13 mph 984mb 45f 46f
12:36 10 11 mph 984mb 45f 46f
12:30 9 10 mph 984.1mb 45f 46f
12:24 8 9 mph 984.1mb 45f 46f
12:18 9 10 mph 984.2mb 45f -
12:12 9 11 mph 984.2mb 45f 46f
12:06 9 11 mph 984.2mb 45f 46f
12:00 9 11 mph 984.2mb 45f 46f
11:54 10 11 mph 984.2mb 45f 46f
11:48 10 14 mph 984.3mb 45f 46f
11:42 10 13 mph 984.3mb 45f 46f
11:36 13 14 mph 984.3mb 45f 46f
11:30 10 13 mph 984.3mb 45f 46f
11:24 8 11 mph 984.3mb 45f 45f
11:18 10 13 mph 984.3mb 45f 45f
11:12 9 11 mph 984.3mb 45f 45f
11:06 10 13 mph 984.3mb 45f 45f
11:00 13 14 mph 984.4mb 45f 45f
10:54 10 11 mph 984.5mb 45f 45f
10:48 10 13 mph 984.6mb 45f 45f
10:42 10 11 mph 984.6mb 45f 45f
10:36 9 13 mph 984.6mb 45f 45f
10:30 11 13 mph 984.6mb 45f 45f
10:24 11 14 mph 984.6mb 45f 45f
10:18 10 13 mph 984.6mb 45f 44f
10:12 8 10 mph 984.6mb 45f 44f
10:06 7 8 mph 984.7mb 45f 44f
10:00 7 10 mph 984.6mb 45f 44f
9:54 9 11 mph 984.6mb 45f 44f
9:48 9 11 mph 984.6mb 45f 44f
9:42 9 10 mph 984.6mb 45f 44f
9:36 10 11 mph 984.6mb 45f 44f
9:30 10 11 mph 984.6mb 45f 44f
9:24 9 14 mph 984.5mb 45f 44f
9:18 11 14 mph 984.6mb 45f 44f
9:12 13 14 mph 984.6mb 45f 44f
9:06 14 20 mph 984.6mb 45f 44f
9:00 15 21 mph 984.7mb 45f 44f
8:54 14 15 mph 984.7mb 45f 44f
8:48 11 14 mph 984.7mb 45f 45f
8:42 13 16 mph 984.6mb 45f 45f
8:36 14 17 mph 984.6mb 45f 45f
8:30 13 15 mph 984.8mb 45f 45f
8:24 13 15 mph 984.8mb 45f 45f
8:18 14 17 mph 984.7mb 46f 45f
8:12 13 15 mph 984.7mb 46f 45f
8:06 14 15 mph 984.7mb 46f 45f
8:00 13 16 mph 984.7mb 46f 44f
7:54 9 13 mph 984.8mb 46f 44f
7:48 9 13 mph 984.9mb - -
7:42 10 11 mph 984.9mb 46f 44f
7:36 10 11 mph 984.9mb 46f 44f
7:30 9 10 mph 985mb 47f 44f
7:24 9 10 mph 985.1mb 47f 44f
7:18 9 11 mph 985.1mb 47f 44f
7:12 11 15 mph 984.9mb 47f 44f
7:06 13 15 mph 985mb 47f 45f
7:00 11 13 mph 985.1mb 47f 45f
6:54 10 14 mph 985.2mb 47f 45f
6:48 11 15 mph 985.3mb 47f 45f
6:42 13 16 mph 985.4mb 47f 45f
6:36 14 16 mph 985.5mb 47f 45f
6:30 15 17 mph 985.5mb 47f 45f
6:24 15 17 mph 985.6mb 47f 45f
6:18 15 18 mph 985.7mb 47f -
6:12 16 20 mph 985.7mb 47f 46f
6:06 17 22 mph 985.7mb 47f 45f
6:00 18 21 mph 985.8mb 47f 45f
5:54 17 20 mph 986mb 47f 45f
5:48 17 21 mph 986.2mb 47f 45f
5:42 17 20 mph 986.3mb 47f 45f
5:36 17 20 mph 986.3mb 47f 46f
5:30 16 21 mph 986.4mb 47f 46f
5:24 18 21 mph 986.5mb 47f 46f
5:18 17 20 mph 986.6mb 47f 46f
5:12 16 18 mph 986.7mb 46f 46f
5:06 14 18 mph 986.8mb 46f 45f
5:00 15 18 mph 986.9mb 46f 45f
4:54 15 18 mph 987mb 46f 45f
4:48 16 17 mph 987.1mb 47f 45f
4:42 16 18 mph 987.3mb 47f 45f
4:36 15 16 mph 987.4mb 46f 46f
4:30 14 18 mph 987.5mb 46f 46f
4:24 15 17 mph 987.7mb 47f 46f
4:18 14 17 mph 987.9mb 46f -
4:12 14 17 mph 988.2mb 46f 46f
4:06 15 20 mph 988.4mb 46f 46f
4:00 15 20 mph 988.6mb 46f 46f
3:54 17 21 mph 988.7mb 46f 46f
3:48 17 18 mph 988.8mb 46f 46f
3:42 15 16 mph 988.9mb 46f 46f
3:36 14 16 mph 989mb 46f 46f
3:30 15 16 mph 989.1mb 46f 45f
3:24 14 16 mph 989.2mb 46f 45f
3:18 15 17 mph 989.3mb - -
3:12 14 16 mph 989.5mb 46f 46f
3:06 14 17 mph 989.6mb 46f 45f
3:00 15 16 mph 989.8mb 46f 45f
2:54 14 16 mph 990mb 46f 45f
2:48 11 15 mph 990.1mb 46f 45f
2:42 13 14 mph 990.3mb 46f 45f
2:36 13 14 mph 990.4mb 46f 45f
2:30 13 14 mph 990.6mb 46f 45f
2:24 13 14 mph 990.7mb 46f 45f
2:18 14 15 mph 990.8mb 46f 45f
2:12 14 16 mph 990.9mb 46f 45f
2:06 11 14 mph 991.1mb 46f 45f
2:00 11 14 mph 991.2mb 46f 45f
1:54 11 14 mph 991.4mb 46f 45f
1:48 14 15 mph 991.5mb - -
1:42 14 16 mph 991.6mb 46f 45f
1:36 13 15 mph 991.7mb 46f 45f
1:30 14 15 mph 991.9mb 46f 46f
1:24 11 14 mph 992mb 46f 45f
1:18 11 14 mph 992.1mb 46f 46f
1:12 13 15 mph 992.3mb 46f 46f
1:06 13 15 mph 992.4mb 46f 45f
1:00 14 15 mph 992.5mb 46f 46f
12:54 14 15 mph 992.6mb 46f 46f
12:48 14 15 mph 992.7mb 46f 46f
12:42 14 17 mph 992.9mb 46f 46f
12:36 15 17 mph 993mb 46f 46f
12:30 14 17 mph 993.1mb 46f 45f
12:24 14 17 mph 993.2mb 46f 45f
12:18 14 16 mph 993.4mb 46f 45f
12:12 14 17 mph 993.5mb 46f 45f
12:06 15 16 mph 993.6mb 45f 45f
12:00 14 17 mph 993.7mb 45f 45f
jue 01/19 11:54 15 16 mph 993.9mb 45f 45f
11:48 15 17 mph 994mb - -
11:42 15 17 mph 994.2mb 45f 45f
11:36 15 17 mph 994.3mb 45f 45f
11:30 15 16 mph 994.4mb 46f 45f
11:24 14 17 mph 994.6mb 46f 45f
11:18 14 16 mph 994.7mb 46f 45f
11:12 15 17 mph 994.7mb 46f 45f
11:06 15 17 mph 994.8mb 46f 45f
11:00 14 16 mph 994.9mb 46f 45f
10:54 13 14 mph 994.9mb 46f 45f
10:48 14 15 mph 995.1mb 46f 45f
10:42 11 14 mph 995.2mb 46f 45f
10:36 11 14 mph 995.3mb 46f 45f
10:30 10 11 mph 995.4mb 46f 45f
10:24 10 11 mph 995.5mb 46f 45f
10:18 9 11 mph 995.6mb 46f -
10:12 10 11 mph 995.8mb 46f 46f
10:06 10 11 mph 995.9mb 46f 46f
10:00 10 14 mph 996.1mb 46f 46f
9:54 11 14 mph 996.1mb 46f 46f
9:48 10 13 mph 996.2mb 46f -
9:42 13 16 mph 996.2mb 46f -
9:36 11 14 mph 996.3mb 46f -
9:30 11 15 mph 996.4mb 46f 46f
9:24 11 16 mph 996.5mb 46f 46f
9:18 14 17 mph 996.6mb 46f 46f
9:12 11 14 mph 996.7mb 46f 46f
9:06 10 13 mph 996.8mb 46f 46f
9:00 8 11 mph 996.8mb 46f 45f
8:54 8
mph
996.9mb 46f 45f
8:48 6 7 mph 996.9mb 46f 45f
8:42 6 8 mph 997mb 46f 45f
8:36 7 9 mph 996.9mb 46f 45f
8:30 9 13 mph 997mb 46f 45f
8:24 11 15 mph 997.1mb 46f 46f
8:18 13 16 mph 997.2mb 46f 46f
8:12 13 16 mph 997.3mb 46f 46f
8:06 13 16 mph 997.3mb 46f 46f
8:00 11 14 mph 997.3mb 46f 46f
7:54 13 16 mph 997.3mb 46f 46f
7:48 14 17 mph 997.3mb 46f -
7:42 18 23 mph 997.4mb 46f 46f
7:36 22 23 mph 997.5mb 46f 46f
7:30 20 23 mph 997.7mb 46f 46f
7:24 17 22 mph 997.7mb 46f 46f
7:18 17 22 mph 997.7mb 46f 46f
7:12 16 21 mph 997.7mb 46f 47f
7:06 16 22 mph 997.8mb 46f 47f
7:00 18 23 mph 997.7mb 46f 47f
6:54 23 28 mph 997.7mb 46f 47f
6:48 20 22 mph 997.7mb 46f -
6:42 15 17 mph 997.8mb 46f 47f
6:36 15 18 mph 997.9mb 46f 47f
6:30 13 17 mph 997.9mb 46f 47f
6:24 14 20 mph 998mb 46f 47f
6:18 14 20 mph 998.1mb 46f 47f
6:12 15 20 mph 998.1mb 46f 46f
6:06 16 22 mph 998.2mb 46f 46f
6:00 10 20 mph 998.2mb 46f 47f
5:54 11 17 mph 998.3mb 46f 46f
5:48 11 14 mph 998.3mb 46f 47f
5:42 8 14 mph 998.4mb 46f 47f
5:36 11 15 mph 998.4mb 46f 47f
5:30 10 18 mph 998.4mb 46f 46f
5:24 14 21 mph 998.5mb 46f 46f
5:18 14 25 mph 998.5mb 46f -
5:12 14 20 mph 998.7mb 46f 46f
5:06 17 24 mph 998.4mb 46f 46f
5:00 18 23 mph 998.5mb 46f 46f
4:54 14 20 mph 998.7mb 46f 47f
4:48 14 22 mph 998.6mb 46f 47f
4:42 16 21 mph 998.4mb 46f 47f
4:36 17 22 mph 998.5mb 46f 46f
4:30 14 20 mph 998.6mb 46f 47f
4:24 13 18 mph 998.5mb 46f 47f
4:18 11 15 mph 998.6mb 46f -
4:12 11 20 mph 998.6mb 46f 47f
4:06 15 23 mph 998.6mb 46f 47f
4:00 21 25 mph 998.4mb 46f 47f
3:54 22 28 mph 998.3mb 46f 47f
3:48 23 28 mph 998.3mb 46f -
3:42 20 29 mph 998.3mb 46f 48f
3:36 22 26 mph 998.2mb 46f 48f
3:30 21 30 mph 998.2mb 46f 48f
3:24 18 28 mph 998.2mb 46f 48f
3:18 24 32 mph 998mb 46f 48f
3:12 21 24 mph 998mb 46f 48f
3:06 21 26 mph 998mb 46f 48f
3:00 18 24 mph 998mb 46f 49f
2:54 18 26 mph 998mb 46f 48f
2:48 22 30 mph 998mb 46f -
2:42 18 25 mph 998mb 46f 48f
2:36 21 26 mph 998mb 46f 48f
2:30 18 25 mph 998mb 46f 48f
2:24 20 24 mph 998mb 46f 48f
2:18 15 20 mph 998.1mb 46f 47f
2:12 15 22 mph 998.2mb 46f 47f
2:06 15 22 mph 998.1mb 46f 47f
2:00 18 25 mph 998.1mb 46f 47f
1:54 21 24 mph 998.1mb 46f 48f
1:48 16 22 mph 998.2mb 46f 48f
1:42 17 26 mph 998.2mb 46f 48f
1:36 18 24 mph 998.2mb 46f 48f
1:30 16 21 mph 998.3mb 46f 48f
1:24 17 24 mph 998.3mb 46f 48f
1:18 20 24 mph 998.3mb 46f 48f
1:12 16 29 mph 998.4mb 46f 48f
1:06 17 22 mph 998.4mb 46f 47f
1:00 21 24 mph 998.5mb 46f 47f
12:54 21 24 mph 998.5mb 46f 47f
12:48 16 22 mph 998.5mb 46f 47f
12:42 17 22 mph 998.6mb 46f 47f
12:36 16 25 mph 998.7mb 46f 47f
12:30 17 21 mph 998.7mb 46f 47f
12:24 15 21 mph 998.8mb 46f 47f
12:18 11 20 mph 998.9mb - -
12:12 15 20 mph 998.9mb 46f 47f
12:06 14 18 mph 998.9mb 46f 47f
12:00 14 20 mph 998.9mb 46f 47f
11:54 16 22 mph 998.9mb 46f 47f
11:48 16 21 mph 998.9mb 46f 47f
11:42 18 23 mph 999mb 46f 47f
11:36 18 24 mph 999mb 46f 47f
11:30 15 21 mph 999mb 46f 47f
11:24 17 21 mph 999mb 46f 47f
11:18 16 20 mph 999.1mb 46f 47f
11:12 17 21 mph 999.1mb 46f 47f
11:06 15 20 mph 999.2mb 46f 47f
11:00 15 20 mph 999.2mb 46f 48f
10:54 11 17 mph 999.2mb 46f 48f
10:48 13 21 mph 999.2mb 46f 48f
10:42 14 21 mph 999.2mb 46f 48f
10:36 15 21 mph 999.1mb 46f 48f
10:30 16 21 mph 999.1mb 46f 48f
10:24 14 18 mph 999.1mb 46f 48f
10:18 15 20 mph - 46f 47f
10:12 16 20 mph - 46f 47f
10:06 13 18 mph - 46f 47f
10:00 9 14 mph 999.1mb 46f 47f
9:54 13 20 mph 999mb 46f 47f
9:48 13 18 mph 999mb - -
9:42 13 18 mph 999mb 46f 47f
9:36 13 18 mph 999mb 46f 47f
9:30 11 20 mph 999mb 46f 47f
9:24 14 16 mph 998.9mb 46f 48f
9:18 15 20 mph 998.9mb 47f 48f
9:12 15 21 mph 998.9mb 46f 48f
9:06 16 23 mph 998.9mb 46f 48f
9:00 16 22 mph 998.8mb 46f 48f
8:54 14 18 mph 998.7mb 46f 48f
8:48 13 20 mph 998.6mb - -
8:42 17 22 mph 998.5mb 46f 47f
8:36 16 22 mph 998.5mb 46f 47f
8:30 16 18 mph 998.3mb 46f 47f
8:24 15 20 mph 998.3mb 47f 47f
8:18 14 21 mph 998.2mb 47f 47f
8:12 15 20 mph 998.1mb 47f 47f
8:06 15 22 mph 998mb 46f 47f
8:00 15 22 mph 997.9mb 47f 47f
7:54 15 22 mph 997.9mb 46f 48f
7:48 17 24 mph 997.8mb 47f 48f
7:42 17 23 mph 997.7mb 47f 48f
7:36 18 25 mph 997.6mb 47f 48f
7:30 16 22 mph 997.6mb 47f 48f
7:24 14 18 mph 997.6mb 46f 47f
7:18 15 22 mph 997.6mb - -
7:12 15 23 mph 997.6mb 47f 48f
7:06 17 23 mph 997.5mb 47f 48f
7:00 17 21 mph 997.4mb 47f 48f
6:54 17 22 mph 997.4mb 47f 48f
6:48 17 23 mph 997.4mb 47f 48f
6:42 16 25 mph 997.3mb 47f 47f
6:36 23 28 mph 997.2mb 47f 47f
6:30 15 18 mph 997.3mb 47f 48f
6:24 15 18 mph 997.2mb 47f 48f
6:18 14 22 mph 997.2mb - -
6:12 16 22 mph 997.2mb 47f 48f
6:06 21 25 mph 997.1mb 47f 47f
6:00 24 29 mph 997mb 47f 47f
5:54 22 26 mph 996.8mb 47f 47f
5:48 22 28 mph 996.9mb 47f 47f
5:42 22 28 mph 996.8mb 47f 48f
5:36 22 25 mph 996.8mb 47f 48f
5:30 21 25 mph 996.9mb 47f 48f
5:24 21 25 mph 996.9mb 47f 47f
5:18 23 26 mph 996.9mb 47f 47f
5:12 21 26 mph 996.9mb 47f 47f
5:06 21 25 mph 996.8mb 47f 48f
5:00 21 25 mph 996.8mb 46f 48f
4:54 22 29 mph 996.8mb 46f 48f
4:48 21 25 mph 996.7mb 46f 48f
4:42 20 25 mph 996.7mb 46f 48f
4:36 14 17 mph 996.6mb 46f 47f
4:30 15 20 mph 996.7mb 46f 47f
4:24 16 20 mph 996.6mb 46f 47f
4:18 15 18 mph 996.6mb 46f 47f
4:12 16 20 mph 996.7mb 46f 47f
4:06 15 22 mph 996.7mb 46f 47f
4:00 18 21 mph 996.7mb 46f 47f
3:54 18 22 mph 996.7mb 46f 47f
3:48 17 23 mph 996.7mb 46f 47f
3:42 17 23 mph 996.6mb 46f 47f
3:36 17 23 mph 996.6mb 46f 48f
3:30 16 25 mph 996.6mb 46f 48f
3:24 23 29 mph 996.6mb 46f 47f
3:18 15 18 mph 996.7mb - -
3:12 13 16 mph 996.6mb 46f 48f
3:06 15 17 mph 996.7mb 46f 48f
3:00 14 16 mph 996.6mb 46f 48f
2:54 14 17 mph 996.5mb 46f 48f
2:48 15 20 mph 996.5mb 46f 48f
2:42 16 29 mph 996.5mb 46f 48f
2:36 17 21 mph 996.4mb 46f 48f
2:30 16 20 mph 996.3mb 46f 48f
2:24 14 17 mph 996.4mb 46f 48f
2:18 13 16 mph 996.3mb 46f -
2:12 14 18 mph 996.3mb 46f 47f
2:06 14 17 mph 996.2mb 46f 48f
2:00 14 18 mph 996.1mb 46f 48f
1:54 14 17 mph 996mb 46f 47f
1:48 14 17 mph 996mb 46f 47f
1:42 15 18 mph 995.9mb 46f 47f
1:36 14 17 mph 995.8mb 46f 48f
1:30 13 15 mph 995.8mb 46f 47f
1:24 15 20 mph 995.7mb 46f 48f
1:18 17 21 mph 995.6mb 46f 48f
1:12 16 20 mph 995.5mb 46f 47f
1:06 16 18 mph 995.4mb 46f 47f
1:00 16 18 mph 995.4mb 46f 47f
12:54 15 22 mph 995.3mb 46f 47f
12:48 16 22 mph 995.3mb 46f -
12:42 20 23 mph 995.1mb 46f 48f
12:36 17 21 mph 995mb 46f 48f
12:30 16 22 mph 994.9mb 46f 48f
12:24 11 21 mph 994.9mb 46f 48f
12:18 16 23 mph 994.8mb 46f 48f
12:12 20 29 mph 994.6mb 46f 48f
12:06 20 25 mph 994.4mb 46f 48f
12:00 15 18 mph 994.5mb 46f 48f
mié 01/18 11:54 16 20 mph 994.5mb 46f 48f
11:48 15 20 mph 994.4mb 46f 48f
11:42 16 21 mph 994.4mb 46f 48f
11:36 14 18 mph 994.4mb 46f 49f
11:30 13 18 mph 994.2mb 46f 49f
11:24 10 21 mph 994.2mb 46f 49f
11:18 14 20 mph 994.1mb 46f 49f
11:12 15 20 mph 993.9mb 46f 49f
11:06 13 17 mph 993.9mb 46f 49f
11:00 11 17 mph 993.8mb 46f 49f
10:54 13 15 mph 993.8mb 46f 49f
10:48 13 17 mph 993.7mb 46f 47f
10:42 11 16 mph 993.5mb 46f 47f
10:36 14 20 mph 993.4mb 46f 48f
10:30 16 22 mph 993.2mb 46f 48f
10:24 18 25 mph 993mb 46f 48f
10:18 21 25 mph 992.8mb 46f 47f
10:12 18 24 mph 992.8mb 46f 47f
10:06 20 26 mph 992.7mb 47f 47f
10:00 18 26 mph 992.5mb 46f -
9:54 21 24 mph 992.4mb 46f 47f
9:48 14 20 mph - - -
9:42 14 17 mph 992.4mb - -
9:36 15 18 mph 992.5mb - -
9:30 17 21 mph 992.3mb 46f 47f
9:24 15 18 mph 992.2mb 46f 47f
9:18 15 17 mph 992.2mb - -
9:12 15 17 mph 992.3mb 46f 46f
9:06 14 16 mph 992.2mb 46f 46f
9:00 14 17 mph 992.1mb 46f 46f
8:54 15 17 mph 992.1mb 46f 46f
8:48 15 20 mph 991.9mb 46f 47f
8:42 16 18 mph 991.7mb 46f 47f
8:36 17 20 mph 991.6mb 46f 47f
8:30 16 21 mph 991.7mb 46f 47f
8:24 15 20 mph 991.6mb 46f 47f
8:18 15 18 mph 991.5mb 46f 47f
8:12 14 20 mph 991.3mb 46f 47f
8:06 15 18 mph 991.1mb 46f 47f
8:00 10 15 mph 991mb 46f 47f
7:54 13 18 mph 990.8mb 46f 47f
7:48 15 20 mph 990.7mb 46f 47f
7:42 10 13 mph 990.6mb 46f 47f
7:36 6 9 mph 990.4mb 46f 47f
7:30 8 11 mph 990.4mb 46f 47f
7:24 9 14 mph 990.2mb 46f 47f
7:18 10 14 mph 990.1mb 46f -
7:12 7 9 mph 989.9mb 46f 48f
7:06 7 9 mph 989.8mb 46f 48f
7:00 7 8 mph 989.7mb 46f 48f
6:54 7 11 mph 989.5mb 46f 48f
6:48 7 10 mph 989.6mb 46f -
6:42 8 11 mph 989.6mb 46f 48f
6:36 7 10 mph 989.6mb 46f 48f
6:30 7 10 mph 989.5mb 46f 48f
6:24 8 11 mph 989.5mb 46f 48f
6:18 7 9 mph 989.5mb - -
6:12 6 10 mph 989.4mb 46f 48f
6:06 7 9 mph 989.4mb 46f 48f
6:00 7 9 mph 989.4mb 46f 48f
5:54 6 8 mph 989.5mb 46f 48f
5:48 7 11 mph 989.5mb 46f 49f
5:42 8 17 mph 989.5mb 46f 49f
5:36 9 11 mph 989.5mb 46f 49f
5:30 9 10 mph 989.2mb 46f 49f
5:24 3 11 mph 989mb 46f 49f
5:18 9 14 mph 989.3mb 46f 49f
5:12 9 16 mph 989.3mb 46f 49f
5:06 11 15 mph 989.3mb 46f 49f
5:00 10 13 mph 989.5mb 46f 49f
4:54 10 11 mph 989.6mb 46f 49f
4:48 9 10 mph 989.7mb 46f 49f
4:42 9 10 mph 989.8mb 46f 49f
4:36 10 11 mph 989.8mb 46f 49f
4:30 10 14 mph 989.8mb 46f 49f
4:24 10 13 mph 989.8mb 46f 49f
4:18 11 14 mph 989.9mb 46f 49f
4:12 10 13 mph 990mb 46f 49f
4:06 10 14 mph 990.1mb 46f 49f
4:00 11 15 mph 990.2mb 46f 49f
3:54 13 17 mph 990.4mb 46f 49f
3:48 14 18 mph 990.4mb 46f 50f
3:42 15 20 mph 990.5mb 46f 50f
3:36 16 18 mph 990.5mb 46f 50f
3:30 14 18 mph 990.5mb 46f 50f
3:24 14 17 mph 990.6mb 46f 50f
3:18 14 18 mph 990.7mb 46f -
3:12 13 15 mph 990.9mb 46f 49f
3:06 13 14 mph 991mb 46f 49f
3:00 13 15 mph 991.1mb 46f 49f
2:54 13 17 mph 991.1mb 46f 49f
2:48 15 20 mph 991.2mb 46f 49f
2:42 18 22 mph 991.2mb 46f 50f
2:36 18 20 mph 991.3mb 46f 49f
2:30 17 21 mph 991.2mb 46f 49f
2:24 15 16 mph 991.3mb 46f 49f
2:18 15 18 mph 991.2mb 46f -
2:12 16 20 mph 991.5mb 46f 49f
2:06 16 20 mph 991.8mb 46f 49f
2:00 14 18 mph 991.7mb 46f 49f
1:54 15 20 mph 991.8mb 46f 49f
1:48 14 20 mph 992mb 46f -
1:42 15 21 mph 992.1mb 46f 49f
1:36 14 24 mph 992.2mb 46f 49f
1:30 18 24 mph 992.2mb 46f 49f
1:24 20 25 mph 992.1mb 46f 49f
1:18 22 30 mph 992.2mb 46f 50f
1:12 24 30 mph 992.3mb 46f 50f
1:06 24 32 mph 992mb 46f 50f
1:00 22 26 mph 992.2mb 46f 50f
12:54 22 26 mph 992.2mb 46f 50f
12:48 21 28 mph 992.3mb 46f -
12:42 24 30 mph 992.4mb 46f 50f
12:36 24 30 mph 992.2mb 46f 50f
12:30 24 30 mph 992.3mb 46f 50f
12:24 24 32 mph 992.4mb 46f 50f
12:18 25 31 mph 992.3mb 46f -
12:12 25 30 mph 992.5mb 46f 51f
12:06 25 31 mph 992.4mb 46f 51f
12:00 26 31 mph 992.4mb 46f 51f
11:54 23 30 mph 992.3mb 46f 51f
11:48 24 29 mph 992.3mb 46f 51f
11:42 23 28 mph 992.3mb 46f 51f
11:36 24 29 mph 992.4mb 46f 51f
11:30 24 31 mph 992.6mb 46f 51f
11:24 24 31 mph 992.6mb 46f 51f
11:18 26 32 mph - - -
11:12 25 32 mph 992.8mb 46f 51f
11:06 26 33 mph 992.7mb 46f 51f
11:00 28 32 mph 992.8mb 46f 51f
10:54 24 31 mph 992.8mb 46f 51f
10:48 25 32 mph 992.7mb 46f -
10:42 26 32 mph 992.6mb 46f 51f
10:36 25 33 mph 992.6mb 46f 51f
10:30 28 34 mph 992.7mb 46f 51f
10:24 25 29 mph 992.7mb 46f 50f
10:18 25 29 mph 992.6mb 46f 51f
10:12 24 30 mph 992.5mb 46f 51f
10:06 25 33 mph 992.5mb 46f 51f
10:00 24 30 mph 992.6mb 46f 51f
9:54 25 33 mph 992.6mb 46f 51f
9:48 25 31 mph - - -
9:42 24 32 mph 992.5mb 46f 51f
9:36 24 30 mph 992.5mb 46f 51f
9:30 28 32 mph 992.5mb 46f 51f
9:24 28 34 mph 992.6mb 46f 51f
9:18 26 34 mph 992.5mb 46f -
9:12 29 36 mph 992.3mb 46f 51f
9:06 29 36 mph 992.3mb 46f 51f
9:00 29 37 mph 992.2mb 46f 51f
8:54 29 36 mph 992.1mb 46f 51f
8:48 26 37 mph - - -
8:42 30 36 mph 992.1mb 46f 51f
8:36 28 34 mph 992.1mb 46f 51f
8:30 26 32 mph 992.2mb 46f 51f
8:24 28 33 mph 992.2mb 46f 51f
8:18 26 37 mph - - -
8:12 28 39 mph 992.1mb 46f 52f
8:06 30 40 mph 992.1mb 46f 52f
8:00 25 38 mph 992.1mb 46f 52f
7:54 28 34 mph 992.1mb 46f 52f
7:48 30 38 mph 992.1mb - -
7:42 29 40 mph 991.9mb 46f 52f
7:36 29 40 mph 991.8mb 46f 51f
7:30 29 37 mph 991.9mb 46f 51f
7:24 31 43 mph 991.8mb 46f 51f
7:18 36 45 mph 991.6mb 46f 52f
7:12 34 45 mph 991.5mb 46f 52f
7:06 32 44 mph 991.5mb 46f 51f
7:00 32 45 mph - - -
6:54 33 44 mph 991.4mb 46f 52f
6:48 33 45 mph 991.3mb 46f 51f
6:42 30 38 mph 991.2mb 46f 51f
6:36 29 41 mph 991.5mb 46f 51f
6:30 29 43 mph 991.5mb 46f 51f
6:24 26 43 mph 991.4mb 46f 51f
6:18 36 44 mph 991mb 46f 51f
6:12 30 38 mph 991mb 46f 51f
6:06 26 34 mph 991.1mb 46f 51f
6:00 30 43 mph 991.4mb 46f 51f
5:54 30 41 mph 991.3mb 46f 52f
5:48 30 39 mph 991.4mb 46f 52f
5:42 32 44 mph 991.6mb 46f 52f
5:36 32 45 mph 991.7mb 46f 52f
5:30 34 45 mph 991.9mb 46f 52f
5:24 33 41 mph 992mb 46f 52f
5:18 33 43 mph 992.3mb - -
5:12 31 41 mph 992.4mb 46f 52f
5:06 32 46 mph 992.6mb 45f 52f
5:00 30 41 mph 992.7mb 45f 51f
4:54 33 39 mph 992.8mb 45f 51f
4:48 31 39 mph 993mb 45f 51f
4:42 30 38 mph 993.2mb 45f 51f
4:36 30 45 mph 993.3mb 45f 51f
4:30 32 44 mph 993.4mb 45f 52f
4:24 30 40 mph 993.5mb 45f 51f
4:18 33 41 mph 993.5mb 45f 51f
4:12 30 36 mph 993.7mb 45f 51f
4:06 28 38 mph 993.8mb 45f 51f
4:00 28 37 mph 993.7mb 45f 51f
3:54 26 36 mph 993.7mb 45f 51f
3:48 26 34 mph 993.8mb - -
3:42 29 34 mph 994mb 45f 50f
3:36 29 36 mph 994.1mb 45f 50f
3:30 25 30 mph 994.3mb 45f 50f
3:24 26 36 mph 994.4mb 45f 50f
3:18 30 37 mph 994.5mb 45f 50f
3:12 23 28 mph 994.6mb 45f 50f
3:06 24 29 mph 994.8mb 45f 50f
3:00 22 25 mph 994.9mb 45f 49f
2:54 21 24 mph 995.1mb 45f 49f
2:48 21 24 mph 995.3mb 45f 49f
2:42 20 23 mph 995.4mb 45f 49f
2:36 18 23 mph 995.6mb 45f 49f
2:30 18 25 mph 995.7mb 45f 49f
2:24 21 24 mph 995.8mb 45f 49f
2:18 21 30 mph 995.9mb 45f 50f
2:12 22 28 mph 995.9mb 45f 50f
2:06 22 30 mph 996mb 45f 50f
2:00 22 28 mph 996.1mb 45f 50f
1:54 21 32 mph 996.2mb 45f 50f
1:48 22 31 mph 996.3mb 45f 50f